ACT        NSW        VIC        QLD        SA        WA        TAS        NT        INFO        CALC            by VK5ZD

Past Date/Time: (dd/mm/yyyy hh:mm or blank for current data)    

  Atmospheric Gas Attenuation - ITU Rec 676-11   --------------- dB/100km ---------------
WA Stations Date Time Temp RH % AH g/m3 Dew Point Wind Direction Speed kph Gust kph Barometer mB Rainfall Since 9am 24GHz 47GHz 76GHz 122GHz 134GHz 241GHz
Albany 01/09 09:00 12.6 80 8.85 9.2 7 1013.1 2 20.2 26.7 41.4 108.8 103.3 355.5
Albany Airport 01/09 19:20 13.2 69 7.92 7.6 15 20 1022 0 18.2 25.3 37.8 98.9 90.9 312.0
Badgingarra 01/09 19:20 10.7 79 7.76 7.2 17 19 1013.1 0 17.9 25.4 37.9 99.4 91.0 312.2
Barimunya 01/09 19:20 27.8 19 5.11 2.1 9 9 1013.1 0 11.7 17.8 22.6 58.7 46.6 158.3
Barrow Island 01/09 19:20 23.4 77 16.19 19.1 22 26 1017.3 0 35.1 35.7 66.0 174.3 187.4 650.3
Beverley 01/09 09:00 12.8 88 9.86 10.9 0 1013.1 1 22.3 28.3 45.5 119.8 116.9 403.2
Bickley 01/09 19:20 10.6 75 7.32 6.4 9 13 1013.1 0 17.0 24.7 36.2 94.8 85.3 292.2
Boolgeeda 01/09 19:20 28.1 24 6.56 5.6 9 15 1015.7 0 14.7 19.6 27.0 70.3 60.9 208.5
Bridgetown 01/09 19:20 12.2 70 7.55 6.9 2 7 1023.4 0 17.4 25.0 36.8 96.3 87.3 299.3
Brookton 01/09 09:00 12 82 8.74 9 0 1013.1 0.8 20.0 26.7 41.3 108.4 102.6 353.0
Broome 01/09 19:20 24.2 86 18.92 21.7 9 11 1015.6 0 40.9 40.4 77.8 205.7 226.3 786.0
Bulga Downs 01/09 09:00 16.9 69 9.92 11.3 6 1023.2 0 22.2 27.5 43.9 115.4 112.6 388.4
Bunbury 01/09 19:20 14.4 61 7.54 7 9 15 1023.9 0 17.3 24.4 35.8 93.6 84.8 290.8
Busselton Airport 01/09 19:20 13.3 68 7.86 7.5 9 13 1023.6 0 18.0 25.2 37.5 98.3 90.1 309.3
Cape Leeuwin 01/09 19:20 15.1 63 8.13 8.1 32 39 1022.8 0 18.5 25.1 37.7 98.8 91.5 314.2
Cape Naturaliste 01/09 19:20 13 64 7.26 6.4 13 20 1023.4 0 16.8 24.4 35.3 92.3 82.7 283.2
Carnarvon 01/09 19:20 20.3 85 14.95 17.7 24 30 1020.4 0 32.7 34.9 63.1 166.7 176.9 613.5
Christmas Creek 01/09 19:20 28.7 18 5.09 2.1 7 9 1016.6 0 11.7 17.7 22.4 58.2 46.1 156.4
Christmas Island 01/09 19:20 24.3 91 20.14 22.7 17 28 1015.2 0 43.5 42.7 83.6 221.1 245.3 851.9
Collie East 01/09 19:20 12.2 72 7.77 7.3 0 0 1013.1 0 17.9 25.0 37.2 97.6 89.4 306.8
Coondewanna 01/09 19:20 25.8 18 4.33 -0.3 6 7 1013.1 0 10.2 17.2 20.9 54.0 40.1 135.3
Cunderdin Airport 01/09 19:20 10.9 71 7.06 5.9 7 7 1023.7 0.2 16.4 24.6 35.5 92.7 82.3 281.7
Curtin 01/09 19:20 24.5 62 13.88 16.7 11 13 1014.6 0 30.2 31.2 55.0 145.1 152.0 527.1
Cygnet Bay 01/09 09:00 26.8 56 14.25 17.4 1018.2 0 30.7 31.1 55.1 145.3 152.8 530.3
Dalwallinu 01/09 19:20 12.1 85 9.12 9.7 0 6 1023.2 0 20.8 27.7 43.3 113.6 108.6 373.7
Derby 01/09 19:20 25.8 62 14.93 18 9 15 1015.1 0 32.3 32.5 58.4 154.3 163.7 568.0
Doongan 01/09 09:00 28.2 47 12.92 15.9 20 1018.4 0 27.9 28.5 48.9 129.0 133.1 461.6
Dwellingup 01/09 19:20 11.2 77 7.81 7.3 9 11 1024 0 18.0 25.8 38.4 100.4 91.9 315.4
Eliwana Airport 01/09 19:20 29.2 23 6.68 6 13 22 1013.1 0 14.9 19.4 26.9 70.2 61.1 209.6
Esperance 01/09 19:20 12.4 73 7.98 7.7 9 11 1022.8 0 18.3 25.7 38.4 100.6 92.7 318.2
Esperance Airport 01/09 19:20 10.6 84 8.2 8 6 7 1023 0 18.9 26.6 40.2 105.4 97.9 336.1
Eucla 01/09 19:20 13.9 85 10.19 11.4 11 15 1022.7 0 23.0 28.9 46.8 122.9 120.8 416.6
Fitzroy Crossing 01/09 19:20 27 21 5.4 2.8 11 11 1015.1 0 12.4 18.3 23.7 61.7 50.0 170.0
Forrest 01/09 19:20 14 77 9.29 10 1022.4 0 21.0 27.3 42.9 112.7 108.2 372.6
Fortescue Dave Forrest 01/09 19:20 28 20 5.44 3 9 11 1016.1 0 12.4 18.2 23.6 61.4 49.8 169.6
Garden Island 01/09 19:20 15.3 62 8.1 8.1 11 15 1024.3 0 18.4 25.1 37.6 98.4 91.0 312.5
Geraldton Airport 01/09 19:20 14.6 86 10.76 12.3 9 13 1023.5 0.2 24.2 29.7 48.8 128.4 127.8 441.1
Gerangamete (Cfa) 01/09 21:20 12.8 98 10.98 12.5 22 26 1013.1 8.6 24.8 30.3 50.4 132.8 132.9 459.1
Giles* 01/09 21:00 26.4 22 5.48 3 9 11 1018.8 0 12.5 18.7 24.3 63.1 51.3 174.6
Gingin Airport 01/09 19:20 11.9 71 7.52 6.8 11 13 1024 0 17.4 25.1 36.9 96.4 87.3 299.2
Golden Grove 01/09 19:20 17.6 66 9.9 11.2 11 19 1013.1 0 22.2 26.9 43.0 113.1 110.4 381.0
Goomalling 01/09 09:00 12.5 82 9.02 9.6 4 1013.1 0.8 20.6 27.0 42.2 110.8 105.7 364.0
Gooseberry Hill 01/09 19:20 12.4 68 7.43 6.7 11 19 1013.1 0 17.2 24.4 35.8 93.8 84.8 290.6
Gudai-Darri Mine 01/09 19:20 29.4 19 5.58 3.4 9 11 1013.1 0 12.7 18.0 23.6 61.3 50.2 171.1
Halls Creek 01/09 21:00 21.6 28 5.31 2.3 9 11 1016.7 0 12.3 19.3 25.1 65.2 52.5 178.2
Hopetoun North 01/09 19:20 12.1 72 7.72 7.2 4 4 1022 0 17.8 25.3 37.5 98.1 89.5 307.1
Iron Bridge Mine 01/09 19:20 30.9 19 6.05 4.6 15 24 1013.1 0 13.6 18.3 24.5 63.8 53.8 183.9
Jacup 01/09 19:20 7.3 79 6.24 3.9 7 9 1022.6 0 14.8 24.2 33.7 88.0 75.1 255.9
Jandakot 01/09 19:20 14.4 63 7.79 7.5 7 9 1024.1 0 17.8 24.8 36.8 96.2 88.0 302.0
Jurien Bay 01/09 09:00 14.8 85 10.77 12.4 9 1024.6 1 24.2 29.7 48.8 128.3 127.7 440.9
Kalbarri 01/09 09:00 19.2 72 11.87 14 4 1023 0 26.2 30.0 50.6 133.2 135.3 468.2
Kalgoorlie-Boulder 01/09 19:20 15.5 69 9.12 9.8 9 11 1021.4 0 20.6 26.5 41.4 108.6 103.7 357.3
Kalumburu 01/09 21:00 25.8 71 17.09 20.1 9 13 1016.4 0 36.8 36.3 67.8 179.3 194.4 675.0
Karijini North 01/09 19:20 28.7 14 3.96 -1.4 7 9 1016.4 0 9.4 16.4 19.2 49.6 35.5 119.2
Karratha 01/09 19:20 26.6 57 14.35 17.4 20 28 1016.7 0 31.0 31.3 55.6 146.6 154.4 535.7
Katanning Rs 01/09 19:20 11.7 65 6.8 5.3 6 9 1023.1 0.2 15.8 24.0 34.1 89.0 78.1 267.0
Kellerberrin 01/09 09:00 12 88 9.38 10.1 1013.1 0 21.4 27.7 44.0 115.6 111.4 383.8
Koolan Island / Koolan Central 01/09 19:20 24.9 73 16.71 19.7 20 24 1013.1 0 36.1 35.9 66.8 176.4 190.7 662.0
Kununurra Airport 01/09 21:00 25.9 36 8.72 9.7 9 9 1016.2 0 19.3 22.9 34.8 91.2 86.0 296.6
Lake Grace 01/09 19:20 11.4 63 6.47 4.6 7 9 1023.3 0 15.1 23.5 32.9 86.0 74.2 253.3
Lancelin (Defence) 01/09 19:20 12.4 79 8.63 8.9 6 9 1023.8 0.2 19.7 26.8 41.1 107.8 101.5 349.0
Laverton 01/09 19:20 19.2 60 9.89 11.3 7 9 1021 0 22.0 26.7 42.5 111.6 108.7 375.2
Learmonth 01/09 19:20 22.5 61 12.18 14.6 26 33 1018.7 0 26.7 29.2 49.6 130.6 133.3 461.7
Legendre Island 01/09 19:20 23.3 81 16.93 19.8 19 19 1017 0 36.7 37.1 69.4 183.4 198.6 689.4
Leinster 01/09 19:20 20.5 39 6.94 6.1 11 13 1019.6 0 15.8 21.9 31.0 80.8 71.3 244.3
Leonora Airport 01/09 19:20 19.5 51 8.56 9.1 7 9 1020.5 0 19.2 24.5 37.2 97.5 91.6 315.2
Lombadina 01/09 19:20 24.8 82 18.66 21.5 11 15 1013.1 0 40.3 39.5 75.8 200.4 220.1 764.5
Mandora 01/09 19:20 23.6 66 14.04 16.9 9 11 1015.3 0 30.6 31.8 56.3 148.7 156.0 541.2
Mandurah 01/09 19:20 15.5 50 6.61 5.1 7 13 1023.9 0 15.3 22.7 31.9 83.1 72.2 246.7
Manjimup 01/09 19:20 11.2 77 7.81 7.3 9 13 1023.1 0 18.0 25.7 38.3 100.3 91.9 315.2
Marble Bar 01/09 19:20 29 19 5.46 3 0 0 1015.8 0 12.4 18.0 23.4 60.8 49.4 168.2
Mardie 01/09 19:20 23.9 67 14.49 17.4 13 19 1017.2 0 31.5 32.5 58.1 153.4 161.9 561.5
Meekatharra 01/09 19:20 21.6 37 7.02 6.3 13 15 1020.2 0 15.9 21.7 30.8 80.5 71.3 244.4
Merredin 01/09 09:00 11.5 90 9.3 10 4 1013.1 0.6 21.2 27.8 43.9 115.4 111.0 382.4
Millendon (Swan Valley) 01/09 19:20 11.1 79 7.96 7.6 0 0 1023.8 0 18.3 26.0 39.0 102.2 94.1 322.8
Morawa Airport 01/09 19:20 14 81 9.77 10.8 6 6 1023.2 0 22.1 28.2 45.0 118.1 114.8 395.8
Mount Keith 01/09 19:20 20.9 42 7.65 7.5 9 9 1013.1 0 17.3 22.6 33.0 86.5 78.7 270.3
Mount Magnet Airport 01/09 19:20 18.9 60 9.72 11 15 20 1021.3 0 21.7 26.5 42.0 110.2 107.0 369.0
Mullewa 01/09 09:00 16.2 82 11.31 13.2 6 1013.1 0 25.3 29.7 49.7 130.8 131.7 455.4
Munglinup West 01/09 19:20 8.7 82 7.09 5.8 7 7 1022.6 0 16.6 25.2 36.5 95.6 85.0 290.8
Murchison 01/09 09:00 18.1 84 12.98 15.4 11 1023.3 0 28.7 32.3 56.2 148.0 153.1 530.2
Narrogin 01/09 09:00 11 82 8.21 8 2 1013.1 2 18.9 26.1 39.6 103.9 96.7 332.2
Newdegate 01/09 19:20 9 75 6.61 4.8 6 7 1022.9 0 15.5 24.4 34.5 90.1 78.3 267.4
Newman Airport 01/09 19:20 27.4 19 5 1.8 9 9 1016.7 0 11.5 17.8 22.5 58.4 45.9 155.8
Norseman Airport 01/09 19:20 11.5 82 8.47 8.5 0 0 1022 0 19.4 26.7 40.8 107.1 100.3 344.8
North Island 01/09 19:20 17.6 70 10.5 12.1 26 33 1023.7 0 23.4 28.2 45.9 120.7 119.4 412.2
Ongerup 01/09 09:00 10.5 91 8.83 9.1 2 1024.1 3 20.2 27.7 43.0 112.7 106.8 367.5
Onslow Airport 01/09 19:20 23.1 73 15.09 18 20 26 1018.3 0 32.8 33.9 61.4 162.1 172.2 597.5
Paraburdoo 01/09 19:20 29.3 18 5.26 2.5 11 13 1016.5 0 12.0 17.8 22.8 59.1 47.4 161.0
Pardoo 01/09 09:00 32.9 29 10.27 13 35 1017.9 0 22.1 23.4 37.0 97.3 95.5 330.5
Paynes Find 01/09 09:00 15.1 83 10.71 12.2 4 1023 0 24.0 29.4 48.3 127.0 126.2 435.7
Pearce 01/09 19:20 12.9 61 6.88 5.6 6 7 1023.7 0 16.0 23.8 33.9 88.6 78.0 266.7
Perth 01/09 19:20 13.6 64 7.53 6.9 7 11 1024 0 17.3 24.6 36.1 94.5 85.5 293.3
Perth Airport 01/09 19:20 14 63 7.6 7.1 11 15 1023.6 0 17.4 24.6 36.2 94.7 86.0 294.9
Port Hedland 01/09 19:20 26 56 13.63 16.5 17 20 1016 0 29.5 30.3 53.0 139.8 145.9 506.1
Portable Btsa (Dfes) 01/09 19:10 23.3 46 9.62 11.1 6 6 1013.1 0 21.3 24.8 39.0 102.5 99.3 342.8
Portable Btsd (Dfes) 01/09 19:10 12.6 73 8.08 8 9 11 1013.1 0 18.5 25.4 38.3 100.4 93.0 319.5
Portable Btsf (Dfes) 01/09 19:00 21.1 58 10.69 12.5 0 0 1013.1 0 23.6 27.1 44.2 116.3 115.6 399.5
Portable Btsh (Dfes) 01/09 19:10 13.7 77 9.12 9.8 2 4 1013.1 0 20.7 26.8 42.0 110.2 105.5 363.2
Portable Btsj (Dfes) 01/09 19:10 14.6 65 8.13 8.1 4 6 1013.1 0 18.5 24.9 37.5 98.4 91.3 313.7
Portable Btsl (Dfes) 01/09 19:10 14.5 62 7.71 7.4 9 15 1013.1 0 17.7 24.3 36.0 94.2 86.1 295.3
Portable Btsm (Dfes) 01/09 19:10 25.2 26 6.05 4.4 2 4 1013.1 0 13.8 19.4 26.2 68.3 57.6 196.7
Portable Btsn (Dfes) 01/09 19:10 20.7 40 7.2 6.8 6 6 1013.1 0 16.3 22.0 31.5 82.5 73.7 252.8
Portable Btso (Dfes) 01/09 19:10 12.2 68 7.34 6.6 2 4 1013.1 0 17.0 24.3 35.6 93.1 83.8 287.2
Ravensthorpe 01/09 09:00 12 70 7.46 6.8 15 1023.8 1 17.2 25.0 36.6 95.7 86.4 296.0
Red Rocks Point 01/09 19:20 14.7 70 8.81 9.3 17 19 1022.7 0 20.0 26.3 40.6 106.5 100.8 346.9
Rocky Gully South 01/09 19:20 11.8 69 7.26 6.3 13 20 1013.1 0 16.8 24.3 35.4 92.7 83.2 285.1
Roebourne Airport 01/09 19:20 26.6 46 11.58 14 13 15 1016.9 0 25.2 26.9 44.7 117.8 118.9 411.8
Rottnest Island 01/09 19:20 14.6 54 6.76 5.4 9 11 1023.9 0 15.6 23.2 32.8 85.5 74.9 256.0
Salmon Gums Rs 01/09 19:20 10.1 94 8.89 9.2 2 9 1013.1 0 20.4 27.5 42.9 112.8 107.3 369.1
Shannon 01/09 19:20 11.4 83 8.52 8.6 4 13 1013.1 0 19.5 26.5 40.7 106.8 100.4 345.2
Shark Bay Airport 01/09 19:20 18.7 87 13.93 16.5 17 22 1020.9 0 30.7 33.7 59.8 157.8 165.5 573.4
Solomon Airport 01/09 19:20 28.1 16 4.38 -0.1 11 15 1015.8 0 10.2 16.9 20.5 53.1 39.6 133.7
Southern Cross Airport 01/09 19:20 11.6 81 8.42 8.5 9 11 1022.9 0 19.3 26.6 40.6 106.5 99.6 342.3
Swanbourne 01/09 19:20 13.1 91 10.38 11.7 9 11 1013.1 0.2 23.4 29.1 47.6 125.3 123.8 427.2
Telfer 01/09 19:20 30.2 19 5.83 4 7 9 1016 0 13.1 18.3 24.1 62.8 52.3 178.4
Thevenard Island 01/09 19:20 22.5 79 15.78 18.7 22 30 1018.1 0 34.3 35.4 64.9 171.5 183.6 637.2
Troughton Island 01/09 21:00 25 82 18.88 21.7 9 11 1016.5 0 40.7 40.0 76.8 203.2 223.4 776.0
Truscott 01/09 21:00 23.1 83 17.16 20.1 0 0 1016.2 0 37.2 37.6 70.6 186.6 202.5 702.9
Wagin 01/09 09:00 12 67 7.14 6.1 4 1013.1 1 16.6 24.1 34.9 91.3 81.5 279.0
Walpole North 01/09 19:20 12.8 67 7.51 6.8 17 24 1021.6 1.4 17.3 24.7 36.3 95.0 86.0 294.8
Wandering 01/09 19:20 12.2 62 6.69 5.1 6 9 1013.1 0.2 15.6 23.3 33.0 86.4 75.6 258.3
Warburton 01/09 21:00 25.8 33 7.94 8.3 11 15 1018.3 0 17.7 22.0 32.3 84.5 77.6 266.9
West Angelas 01/09 19:20 26.6 22 5.54 3.2 6 9 1016.3 0 12.7 18.6 24.3 63.2 51.7 175.9
West Musgrave Airport 01/09 19:20 27.7 22 5.89 4.1 13 15 1013.1 0 13.3 18.7 25.0 65.0 54.3 185.3
Wiluna Airport 01/09 19:20 23.3 30 6.27 4.8 9 13 1019.4 0 14.3 20.3 27.7 72.2 61.6 210.6
Windy Harbour 01/09 09:00 14.8 69 8.74 9.3 7 1023.4 6 19.8 26.2 40.3 105.7 99.8 343.4
Witchcliffe West 01/09 19:20 12.5 69 7.59 7 7 11 1023.3 0 17.5 25.0 36.8 96.4 87.5 300.0
Wongan Hills 01/09 09:00 12 88 9.38 10.1 15 1025.1 0.4 21.3 28.2 44.5 116.9 112.5 387.5
Wyndham Airport 01/09 21:00 26.2 53 13.05 15.9 0 0 1015.9 0 28.3 29.3 50.6 133.3 138.0 478.4
Yampi Sound (Defence) 01/09 19:20 26.9 53 13.57 16.5 4 7 1018.7 0 29.3 30.0 52.3 138.0 143.7 498.6
York 01/09 09:00 12 94 10.02 11 7 1025.6 1 22.7 29.3 47.3 124.3 121.6 419.4

Last Refresh: 01-Sep-2026 21:09:32

Bureau of Meteorology